createdAt,value
2017-05-22T00:00:18.738Z,30.5
2017-05-22T00:01:21.716Z,30.6
2017-05-22T00:02:21.686Z,30.5
2017-05-22T00:03:18.929Z,30.5
2017-05-22T00:04:18.960Z,30.5
2017-05-22T00:05:21.883Z,30.6
2017-05-22T00:06:21.742Z,30.6
2017-05-22T00:07:19.046Z,30.6
2017-05-22T00:08:22.003Z,30.6
2017-05-22T00:09:19.107Z,30.6
2017-05-22T00:10:22.061Z,30.6
2017-05-22T00:11:19.233Z,30.5
2017-05-22T00:12:19.329Z,30.5
2017-05-22T00:13:19.271Z,30.5
2017-05-22T00:14:22.175Z,30.5
2017-05-22T00:15:22.277Z,30.5
2017-05-22T00:16:22.228Z,30.5
2017-05-22T00:17:22.336Z,30.5
2017-05-22T00:18:22.367Z,30.5
2017-05-22T00:19:19.591Z,30.5
2017-05-22T00:20:19.455Z,30.5
2017-05-22T00:21:22.538Z,30.5
2017-05-22T00:22:22.577Z,30.5
2017-05-22T00:23:19.772Z,30.5
2017-05-22T00:24:22.720Z,30.5
2017-05-22T00:25:22.749Z,30.5
2017-05-22T00:26:20.018Z,30.5
2017-05-22T00:27:19.889Z,30.5
2017-05-22T00:28:20.056Z,30.5
2017-05-22T00:29:20.078Z,30.5
2017-05-22T00:30:22.938Z,30.5
2017-05-22T00:31:23.603Z,30.5
2017-05-22T00:32:22.942Z,30.5
2017-05-22T00:33:20.110Z,30.5
2017-05-22T00:34:20.184Z,30.5
2017-05-22T00:35:20.409Z,30.5
2017-05-22T00:36:20.363Z,30.5
2017-05-22T00:37:23.244Z,30.5
2017-05-22T00:38:23.330Z,30.5
2017-05-22T00:39:23.512Z,30.5
2017-05-22T00:40:24.187Z,30.5
2017-05-22T00:41:23.506Z,30.5
2017-05-22T00:42:23.670Z,30.5
2017-05-22T00:43:23.538Z,30.5
2017-05-22T00:44:23.741Z,30.5
2017-05-22T00:45:23.726Z,30.5
2017-05-22T00:46:23.765Z,30.5
2017-05-22T00:47:20.849Z,30.5
2017-05-22T00:48:20.892Z,30.5
2017-05-22T00:49:20.957Z,30.5
2017-05-22T00:50:23.989Z,30.5
2017-05-22T00:51:21.179Z,30.5
2017-05-22T00:52:21.032Z,30.4
2017-05-22T00:53:24.054Z,30.4
2017-05-22T00:54:21.226Z,30.4
2017-05-22T00:55:23.988Z,30.4
2017-05-22T00:56:21.304Z,30.4
2017-05-22T00:57:21.179Z,30.4
2017-05-22T00:58:24.221Z,30.4
2017-05-22T00:59:21.363Z,30.4
2017-05-22T01:00:21.408Z,30.4
2017-05-22T01:01:21.508Z,30.4
2017-05-22T01:02:21.410Z,30.4
2017-05-22T01:03:21.428Z,30.4
2017-05-22T01:04:21.592Z,30.4
2017-05-22T01:05:21.511Z,30.4
2017-05-22T01:06:21.729Z,30.4
2017-05-22T01:07:21.589Z,30.4
2017-05-22T01:08:24.625Z,30.4
2017-05-22T01:09:24.650Z,30.4
2017-05-22T01:10:24.609Z,30.4
2017-05-22T01:11:24.640Z,30.4
2017-05-22T01:12:24.695Z,30.4
2017-05-22T01:13:24.872Z,30.4
2017-05-22T01:14:22.017Z,30.4
2017-05-22T01:15:24.883Z,30.4
2017-05-22T01:16:22.155Z,30.4
2017-05-22T01:17:24.886Z,30.4
2017-05-22T01:18:24.924Z,30.4
2017-05-22T01:19:22.080Z,30.4
2017-05-22T01:20:25.009Z,30.4
2017-05-22T01:21:25.179Z,30.4
2017-05-22T01:22:25.505Z,30.4
2017-05-22T01:23:25.189Z,30.4
2017-05-22T01:24:22.378Z,30.4
2017-05-22T01:25:22.590Z,30.4
2017-05-22T01:26:22.583Z,30.4
2017-05-22T01:27:25.648Z,30.4
2017-05-22T01:28:25.854Z,30.3
2017-05-22T01:29:22.875Z,30.4
2017-05-22T01:30:22.911Z,30.4
2017-05-22T01:31:25.680Z,30.4
2017-05-22T01:32:25.870Z,30.4
2017-05-22T01:33:23.055Z,30.4
2017-05-22T01:34:23.306Z,30.4
2017-05-22T01:35:23.182Z,30.4
2017-05-22T01:36:23.112Z,30.4
2017-05-22T01:37:23.146Z,30.4
2017-05-22T01:38:26.164Z,30.4
2017-05-22T01:39:26.188Z,30.4
2017-05-22T01:40:26.416Z,30.3
2017-05-22T01:41:23.401Z,30.3
2017-05-22T01:42:23.410Z,30.3
2017-05-22T01:43:26.450Z,30.3
2017-05-22T01:44:26.478Z,30.4
2017-05-22T01:45:23.668Z,30.3
2017-05-22T01:46:23.835Z,30.3
2017-05-22T01:47:23.653Z,30.3
2017-05-22T01:48:26.537Z,30.3
2017-05-22T01:49:26.560Z,30.3
2017-05-22T01:50:26.740Z,30.3
2017-05-22T01:51:26.676Z,30.3
2017-05-22T01:52:26.958Z,30.3
2017-05-22T01:53:23.985Z,30.3
2017-05-22T01:54:26.753Z,30.3
2017-05-22T01:55:26.885Z,30.3
2017-05-22T01:56:23.971Z,30.3
2017-05-22T01:57:24.159Z,30.3
2017-05-22T01:58:24.220Z,30.3
2017-05-22T01:59:26.911Z,30.3
2017-05-22T02:00:24.025Z,30.3
2017-05-22T02:01:27.005Z,30.3
2017-05-22T02:02:27.026Z,30.3
2017-05-22T02:03:27.082Z,30.3
2017-05-22T02:04:24.690Z,30.3
2017-05-22T02:05:27.302Z,30.3
2017-05-22T02:06:24.357Z,30.3
2017-05-22T02:07:27.437Z,30.3
2017-05-22T02:08:24.488Z,30.3
2017-05-22T02:09:27.459Z,30.3
2017-05-22T02:10:27.777Z,30.3
2017-05-22T02:11:24.855Z,30.3
2017-05-22T02:12:24.756Z,30.3
2017-05-22T02:13:27.698Z,30.3
2017-05-22T02:14:27.841Z,30.3
2017-05-22T02:15:27.815Z,30.3
2017-05-22T02:16:28.088Z,30.3
2017-05-22T02:17:25.079Z,30.3
2017-05-22T02:18:25.248Z,30.2
2017-05-22T02:19:25.136Z,30.2
2017-05-22T02:20:28.054Z,30.3
2017-05-22T02:21:28.077Z,30.3
2017-05-22T02:22:28.296Z,30.3
2017-05-22T02:23:25.524Z,30.3
2017-05-22T02:24:25.372Z,30.3
2017-05-22T02:25:28.269Z,30.2
2017-05-22T02:26:25.522Z,30.2
2017-05-22T02:27:28.467Z,30.3
2017-05-22T02:28:28.746Z,30.3
2017-05-22T02:29:28.480Z,30.3
2017-05-22T02:30:25.756Z,30.3
2017-05-22T02:31:25.690Z,30.3
2017-05-22T02:32:25.744Z,30.2
2017-05-22T02:33:26.007Z,30.2
2017-05-22T02:34:26.034Z,30.2
2017-05-22T02:35:28.836Z,30.2
2017-05-22T02:36:28.883Z,30.2
2017-05-22T02:37:26.114Z,30.2
2017-05-22T02:38:29.098Z,30.2
2017-05-22T02:39:26.095Z,30.2
2017-05-22T02:40:29.198Z,30.2
2017-05-22T02:41:29.079Z,30.2
2017-05-22T02:42:29.092Z,30.2
2017-05-22T02:43:29.279Z,30.2
2017-05-22T02:44:26.398Z,30.2
2017-05-22T02:45:26.451Z,30.2
2017-05-22T02:46:26.775Z,30.2
2017-05-22T02:47:29.398Z,30.2
2017-05-22T02:48:29.593Z,30.2
2017-05-22T02:49:29.601Z,30.2
2017-05-22T02:50:26.627Z,30.2
2017-05-22T02:51:29.525Z,30.2
2017-05-22T02:52:27.011Z,30.2
2017-05-22T02:53:26.944Z,30.2
2017-05-22T02:54:29.772Z,30.2
2017-05-22T02:55:29.924Z,30.2
2017-05-22T02:56:26.964Z,30.2
2017-05-22T02:57:27.007Z,30.2
2017-05-22T02:58:27.250Z,30.2
2017-05-22T02:59:30.011Z,30.2
2017-05-22T03:00:27.354Z,30.2
2017-05-22T03:01:30.151Z,30.2
2017-05-22T03:02:30.207Z,30.2
2017-05-22T03:03:30.214Z,30.2
2017-05-22T03:04:27.522Z,30.2
2017-05-22T03:05:27.534Z,30.2
2017-05-22T03:06:30.496Z,30.2
2017-05-22T03:07:30.469Z,30.2
2017-05-22T03:08:30.594Z,30.2
2017-05-22T03:09:27.742Z,30.2
2017-05-22T03:10:30.543Z,30.2
2017-05-22T03:11:30.704Z,30.2
2017-05-22T03:12:27.696Z,30.2
2017-05-22T03:13:30.587Z,30.2
2017-05-22T03:14:27.896Z,30.1
2017-05-22T03:15:27.889Z,30.1
2017-05-22T03:16:27.769Z,30.2
2017-05-22T03:17:27.947Z,30.2
2017-05-22T03:18:27.859Z,30.2
2017-05-22T03:19:30.931Z,30.2
2017-05-22T03:20:30.903Z,30.2
2017-05-22T03:21:28.243Z,30.1
2017-05-22T03:22:31.003Z,30.2
2017-05-22T03:23:28.296Z,30.2
2017-05-22T03:24:31.202Z,30.2
2017-05-22T03:25:31.177Z,30.2
2017-05-22T03:26:28.328Z,30.2
2017-05-22T03:27:31.155Z,30.1
2017-05-22T03:28:28.317Z,30.2
2017-05-22T03:29:28.367Z,30.2
2017-05-22T03:30:31.264Z,30.2
2017-05-22T03:31:28.434Z,30.2
2017-05-22T03:32:31.338Z,30.2
2017-05-22T03:33:31.361Z,30.2
2017-05-22T03:34:31.519Z,30.2
2017-05-22T03:35:28.764Z,30.2
2017-05-22T03:36:28.621Z,30.2
2017-05-22T03:37:28.808Z,30.1
2017-05-22T03:38:28.723Z,30.1
2017-05-22T03:39:28.900Z,30.2
2017-05-22T03:40:31.668Z,30.2
2017-05-22T03:41:31.737Z,30.2
2017-05-22T03:42:31.855Z,30.2
2017-05-22T03:43:29.158Z,30.1
2017-05-22T03:44:28.967Z,30.1
2017-05-22T03:45:29.038Z,30.2
2017-05-22T03:46:29.044Z,30.2
2017-05-22T03:47:29.219Z,30.2
2017-05-22T03:48:29.113Z,30.2
2017-05-22T03:49:32.217Z,30.2
2017-05-22T03:50:32.052Z,30.2
2017-05-22T03:51:32.205Z,30.1
2017-05-22T03:52:32.221Z,30.2
2017-05-22T03:53:32.111Z,30.2
2017-05-22T03:54:29.304Z,30.2
2017-05-22T03:55:29.830Z,30.2
2017-05-22T03:56:32.272Z,30.2
2017-05-22T03:57:32.295Z,30.2
2017-05-22T03:58:32.453Z,30.2
2017-05-22T03:59:32.328Z,30.2
2017-05-22T04:00:32.482Z,30.2
2017-05-22T04:01:29.798Z,30.2
2017-05-22T04:02:32.486Z,30.2
2017-05-22T04:03:29.821Z,30.2
2017-05-22T04:04:29.679Z,30.2
2017-05-22T04:05:29.826Z,30.2
2017-05-22T04:06:32.683Z,30.2
2017-05-22T04:07:30.137Z,30.2
2017-05-22T04:08:32.769Z,30.2
2017-05-22T04:09:29.947Z,30.2
2017-05-22T04:10:29.927Z,30.2
2017-05-22T04:11:32.925Z,30.2
2017-05-22T04:12:30.267Z,30.2
2017-05-22T04:13:30.533Z,30.2
2017-05-22T04:14:33.290Z,30.2
2017-05-22T04:15:33.357Z,30.2
2017-05-22T04:16:30.504Z,30.2
2017-05-22T04:17:30.522Z,30.2
2017-05-22T04:18:33.448Z,30.2
2017-05-22T04:19:33.782Z,30.2
2017-05-22T04:20:30.660Z,30.2
2017-05-22T04:21:30.782Z,30.2
2017-05-22T04:22:30.705Z,30.2
2017-05-22T04:23:30.928Z,30.2
2017-05-22T04:24:33.843Z,30.2
2017-05-22T04:25:31.332Z,30.2
2017-05-22T04:26:33.808Z,30.2
2017-05-22T04:27:31.086Z,30.2
2017-05-22T04:28:33.947Z,30.2
2017-05-22T04:29:34.110Z,30.2
2017-05-22T04:30:34.166Z,30.3
2017-05-22T04:31:34.401Z,30.2
2017-05-22T04:32:34.261Z,30.2
2017-05-22T04:33:31.269Z,30.3
2017-05-22T04:34:31.424Z,30.2
2017-05-22T04:35:34.237Z,30.2
2017-05-22T04:36:31.406Z,30.2
2017-05-22T04:37:31.692Z,30.3
2017-05-22T04:38:31.548Z,30.2
2017-05-22T04:39:31.522Z,30.2
2017-05-22T04:40:34.478Z,30.2
2017-05-22T04:41:34.490Z,30.3
2017-05-22T04:42:34.545Z,30.3
2017-05-22T04:43:32.030Z,30.2
2017-05-22T04:44:34.726Z,30.2
2017-05-22T04:45:31.951Z,30.2
2017-05-22T04:46:31.833Z,30.2
2017-05-22T04:47:31.969Z,30.3
2017-05-22T04:48:31.939Z,30.3
2017-05-22T04:49:35.033Z,30.3
2017-05-22T04:50:31.973Z,30.3
2017-05-22T04:51:35.019Z,30.3
2017-05-22T04:52:32.114Z,30.3
2017-05-22T04:53:32.169Z,30.3
2017-05-22T04:54:35.097Z,30.3
2017-05-22T04:55:32.700Z,30.3
2017-05-22T04:56:35.650Z,30.3
2017-05-22T04:57:35.848Z,30.4
2017-05-22T04:58:35.295Z,30.4
2017-05-22T04:59:32.637Z,30.4
2017-05-22T05:00:32.684Z,30.4
2017-05-22T05:01:35.844Z,30.4
2017-05-22T05:02:35.649Z,30.4
2017-05-22T05:03:32.803Z,30.4
2017-05-22T05:04:32.746Z,30.4
2017-05-22T05:05:32.756Z,30.4
2017-05-22T05:06:32.947Z,30.4
2017-05-22T05:07:36.126Z,30.4
2017-05-22T05:08:35.756Z,30.5
2017-05-22T05:09:35.815Z,30.5
2017-05-22T05:10:36.035Z,30.5
2017-05-22T05:11:33.086Z,30.5
2017-05-22T05:12:33.278Z,30.5
2017-05-22T05:13:36.229Z,30.5
2017-05-22T05:14:36.077Z,30.5
2017-05-22T05:15:36.283Z,30.5
2017-05-22T05:16:33.423Z,30.5
2017-05-22T05:17:36.462Z,30.5
2017-05-22T05:18:36.534Z,30.5
2017-05-22T05:19:33.541Z,30.5
2017-05-22T05:20:33.393Z,30.5
2017-05-22T05:21:36.466Z,30.5
2017-05-22T05:22:34.086Z,30.6
2017-05-22T05:23:36.535Z,30.6
2017-05-22T05:24:36.446Z,30.6
2017-05-22T05:25:36.761Z,30.6
2017-05-22T05:26:33.796Z,30.5
2017-05-22T05:27:37.233Z,30.6
2017-05-22T05:28:36.629Z,30.6
2017-05-22T05:29:36.707Z,30.6
2017-05-22T05:30:33.894Z,30.6
2017-05-22T05:31:36.957Z,30.6
2017-05-22T05:32:36.892Z,30.6
2017-05-22T05:33:36.939Z,30.6
2017-05-22T05:34:34.169Z,30.6
2017-05-22T05:35:37.026Z,30.6
2017-05-22T05:36:37.145Z,30.6
2017-05-22T05:37:34.490Z,30.6
2017-05-22T05:38:34.423Z,30.6
2017-05-22T05:39:37.290Z,30.6
2017-05-22T05:40:34.511Z,30.7
2017-05-22T05:41:37.323Z,30.7
2017-05-22T05:42:37.426Z,30.7
2017-05-22T05:43:34.656Z,30.6
2017-05-22T05:44:37.411Z,30.7
2017-05-22T05:45:34.741Z,30.7
2017-05-22T05:46:34.722Z,30.7
2017-05-22T05:47:34.670Z,30.7
2017-05-22T05:48:37.672Z,30.7
2017-05-22T05:49:35.002Z,30.7
2017-05-22T05:50:37.886Z,30.7
2017-05-22T05:51:35.051Z,30.7
2017-05-22T05:52:34.948Z,30.7
2017-05-22T05:53:38.584Z,30.7
2017-05-22T05:54:38.130Z,30.7
2017-05-22T05:55:35.338Z,30.7
2017-05-22T05:56:35.421Z,30.7
2017-05-22T05:57:35.999Z,30.7
2017-05-22T05:58:35.650Z,30.7
2017-05-22T05:59:38.433Z,30.7
2017-05-22T06:00:38.435Z,30.7
2017-05-22T06:01:38.546Z,30.7
2017-05-22T06:02:38.702Z,30.7
2017-05-22T06:03:35.763Z,30.7
2017-05-22T06:04:38.660Z,30.7
2017-05-22T06:05:38.827Z,30.7
2017-05-22T06:06:38.861Z,30.8
2017-05-22T06:07:38.892Z,30.8
2017-05-22T06:08:38.850Z,30.7
2017-05-22T06:09:35.981Z,30.8
2017-05-22T06:10:39.654Z,30.8
2017-05-22T06:11:36.106Z,30.8
2017-05-22T06:12:36.276Z,30.8
2017-05-22T06:13:36.276Z,30.8
2017-05-22T06:14:39.228Z,30.8
2017-05-22T06:15:36.375Z,30.8
2017-05-22T06:16:39.405Z,30.8
2017-05-22T06:17:39.441Z,30.7
2017-05-22T06:18:36.597Z,30.5
2017-05-22T06:19:39.501Z,30.2
2017-05-22T06:20:39.449Z,29.9
2017-05-22T06:21:36.621Z,29.6
2017-05-22T06:22:36.875Z,29.4
2017-05-22T06:23:39.728Z,29.1
2017-05-22T06:24:38.017Z,29
2017-05-22T06:25:37.717Z,28.8
2017-05-22T06:26:39.757Z,28.7
2017-05-22T06:27:40.536Z,28.6
2017-05-22T06:28:37.655Z,28.5
2017-05-22T06:29:39.931Z,28.3
2017-05-22T06:30:37.039Z,28.2
2017-05-22T06:31:37.110Z,28
2017-05-22T06:32:41.388Z,28
2017-05-22T06:33:40.231Z,27.9
2017-05-22T06:34:37.241Z,27.9
2017-05-22T06:35:40.271Z,27.8
2017-05-22T06:36:38.670Z,27.8
2017-05-22T06:37:40.276Z,27.7
2017-05-22T06:38:40.366Z,27.7
2017-05-22T06:39:41.144Z,27.7
2017-05-22T06:40:38.190Z,27.6
2017-05-22T06:41:40.409Z,27.6
2017-05-22T06:42:37.837Z,27.6
2017-05-22T06:43:38.562Z,27.6
2017-05-22T06:44:37.727Z,27.7
2017-05-22T06:45:39.029Z,27.8
2017-05-22T06:46:41.381Z,28
2017-05-22T06:47:40.935Z,28
2017-05-22T06:48:40.836Z,28
2017-05-22T06:49:41.609Z,28
2017-05-22T06:50:38.125Z,28.1
2017-05-22T06:51:38.341Z,28.1
2017-05-22T06:52:38.288Z,28.1
2017-05-22T06:53:38.433Z,28.2
2017-05-22T06:54:42.351Z,28.2
2017-05-22T06:55:39.251Z,28.3
2017-05-22T06:56:40.900Z,28.4
2017-05-22T06:57:38.685Z,28.4
2017-05-22T06:58:38.780Z,28.3
2017-05-22T06:59:43.526Z,28.4
2017-05-22T07:00:39.656Z,28.3
2017-05-22T07:01:42.952Z,28.3
2017-05-22T07:02:43.257Z,28.3
2017-05-22T07:03:43.381Z,28.3
2017-05-22T07:04:43.900Z,28.3
2017-05-22T07:05:39.930Z,28.3
2017-05-22T07:06:42.706Z,28.3
2017-05-22T07:07:44.912Z,28.3
2017-05-22T07:08:43.657Z,28.4
2017-05-22T07:09:47.347Z,28.5
2017-05-22T07:10:40.155Z,28.5
2017-05-22T07:11:40.948Z,28.6
2017-05-22T07:12:43.139Z,28.6
2017-05-22T07:13:43.189Z,28.6
2017-05-22T07:14:42.630Z,28.7
2017-05-22T07:15:41.156Z,28.8
2017-05-22T07:16:43.395Z,28.8
2017-05-22T07:17:44.242Z,28.9
2017-05-22T07:18:40.491Z,29
2017-05-22T07:19:40.086Z,29.1
2017-05-22T07:20:45.282Z,29.1
2017-05-22T07:21:39.989Z,29.2
2017-05-22T07:22:40.664Z,29.4
2017-05-22T07:23:40.746Z,29.4
2017-05-22T07:24:43.111Z,29.4
2017-05-22T07:25:41.528Z,29.5
2017-05-22T07:26:44.969Z,29.5
2017-05-22T07:27:40.406Z,29.6
2017-05-22T07:28:40.457Z,29.7
2017-05-22T07:29:43.392Z,29.7
2017-05-22T07:30:41.248Z,29.7
2017-05-22T07:31:44.188Z,29.7
2017-05-22T07:32:40.834Z,29.6
2017-05-22T07:33:43.671Z,29.7
2017-05-22T07:34:46.061Z,29.8
2017-05-22T07:35:44.541Z,29.9
2017-05-22T07:36:41.022Z,29.9
2017-05-22T07:37:44.780Z,29.9
2017-05-22T07:38:51.096Z,29.9
2017-05-22T07:39:49.909Z,29.9
2017-05-22T07:40:49.852Z,30
2017-05-22T07:41:46.030Z,30
2017-05-22T07:42:44.053Z,30.1
2017-05-22T07:43:45.302Z,30.1
2017-05-22T07:44:44.280Z,30.1
2017-05-22T07:45:45.473Z,30.1
2017-05-22T07:46:56.874Z,30.1
2017-05-22T07:47:46.503Z,30.1
2017-05-22T07:48:47.698Z,30.1
2017-05-22T07:49:44.542Z,30.1
2017-05-22T07:50:42.301Z,30.2
2017-05-22T07:51:48.541Z,30.2
2017-05-22T07:52:46.945Z,30.2
2017-05-22T07:53:43.408Z,30.2
2017-05-22T07:54:50.106Z,30.2
2017-05-22T07:55:47.872Z,30.2
2017-05-22T07:56:49.027Z,30.3
2017-05-22T07:57:42.288Z,30.3
2017-05-22T07:58:45.151Z,30.4
2017-05-22T07:59:42.283Z,30.4
2017-05-22T08:00:42.778Z,30.4
2017-05-22T08:01:42.375Z,30.5
2017-05-22T08:02:46.686Z,30.6
2017-05-22T08:03:46.403Z,30.8
2017-05-22T08:04:44.264Z,30.8
2017-05-22T08:05:50.836Z,30.9
2017-05-22T08:06:46.877Z,31
2017-05-22T08:07:44.024Z,31
2017-05-22T08:08:44.582Z,31
2017-05-22T08:09:42.865Z,31
2017-05-22T08:10:44.897Z,31
2017-05-22T08:11:48.480Z,31
2017-05-22T08:12:47.206Z,31
2017-05-22T08:13:45.726Z,31
2017-05-22T08:14:44.667Z,31
2017-05-22T08:15:44.661Z,31
2017-05-22T08:16:45.105Z,31
2017-05-22T08:17:45.688Z,31.1
2017-05-22T08:18:46.166Z,31.1
2017-05-22T08:19:46.246Z,31.2
2017-05-22T08:20:43.944Z,31.2
2017-05-22T08:21:48.323Z,31
2017-05-22T08:22:45.912Z,31.3
2017-05-22T08:23:43.648Z,31.3
2017-05-22T08:24:45.332Z,31.3
2017-05-22T08:25:48.361Z,31.4
2017-05-22T08:26:47.644Z,31.4
2017-05-22T08:27:45.284Z,31.5
2017-05-22T08:28:45.906Z,31.5
2017-05-22T08:29:44.442Z,31.5
2017-05-22T08:30:46.717Z,31.7
2017-05-22T08:31:45.694Z,31.8
2017-05-22T08:32:49.968Z,32
2017-05-22T08:33:45.197Z,32.1
2017-05-22T08:34:47.730Z,32.1
2017-05-22T08:35:44.655Z,32.3
2017-05-22T08:36:45.568Z,32.4
2017-05-22T08:37:44.159Z,32.6
2017-05-22T08:38:47.713Z,32.7
2017-05-22T08:39:48.182Z,32.9
2017-05-22T08:40:49.762Z,33.2
2017-05-22T08:41:45.019Z,33.4
2017-05-22T08:42:47.879Z,33.6
2017-05-22T08:43:46.626Z,33.6
2017-05-22T08:44:47.005Z,33.5
2017-05-22T08:45:48.136Z,33.4
2017-05-22T08:46:51.001Z,33.2
2017-05-22T08:47:44.731Z,33.2
2017-05-22T08:48:48.281Z,33.3
2017-05-22T08:49:50.032Z,33.6
2017-05-22T08:50:44.908Z,33.9
2017-05-22T08:51:46.751Z,34.3
2017-05-22T08:52:48.329Z,34.5
2017-05-22T08:53:48.525Z,34.8
2017-05-22T08:54:48.528Z,35
2017-05-22T08:55:49.403Z,35.2
2017-05-22T08:56:49.849Z,35.4
2017-05-22T08:57:46.676Z,35.6
2017-05-22T08:58:49.345Z,35.5
2017-05-22T08:59:46.491Z,35.9
2017-05-22T09:00:48.457Z,36
2017-05-22T09:01:46.639Z,36.1
2017-05-22T09:02:49.448Z,36.1
2017-05-22T09:03:49.858Z,36.2
2017-05-22T09:04:49.261Z,36.2
2017-05-22T09:05:52.193Z,36.3
2017-05-22T09:06:51.964Z,36.3
2017-05-22T09:07:53.642Z,36.3
2017-05-22T09:08:45.804Z,36.2
2017-05-22T09:09:49.842Z,36.2
2017-05-22T09:10:46.084Z,36.1
2017-05-22T09:11:49.292Z,36.1
2017-05-22T09:12:48.278Z,35.9
2017-05-22T09:13:47.238Z,35.7
2017-05-22T09:14:47.241Z,35.5
2017-05-22T09:15:49.792Z,35.5
2017-05-22T09:16:51.779Z,35.5
2017-05-22T09:17:50.502Z,35.6
2017-05-22T09:18:49.587Z,35.7
2017-05-22T09:19:47.600Z,35.6
2017-05-22T09:20:49.798Z,35.5
2017-05-22T09:21:51.497Z,35.3
2017-05-22T09:22:50.044Z,35
2017-05-22T09:23:52.003Z,34.7
2017-05-22T09:24:50.140Z,34.6
2017-05-22T09:25:51.999Z,34.5
2017-05-22T09:26:50.882Z,34.5
2017-05-22T09:27:49.849Z,34.6
2017-05-22T09:28:48.880Z,34.5
2017-05-22T09:29:51.543Z,34.4
2017-05-22T09:30:50.716Z,34.4
2017-05-22T09:31:50.198Z,34.5
2017-05-22T09:32:50.674Z,34.5
2017-05-22T09:33:51.099Z,34.6
2017-05-22T09:34:50.577Z,34.7
2017-05-22T09:35:48.133Z,34.6
2017-05-22T09:36:51.693Z,34.6
2017-05-22T09:37:47.153Z,34.6
2017-05-22T09:38:49.036Z,34.7
2017-05-22T09:39:52.160Z,34.8
2017-05-22T09:40:53.522Z,34.8
2017-05-22T09:41:47.295Z,34.7
2017-05-22T09:42:51.317Z,34.7
2017-05-22T09:43:47.187Z,34.7
2017-05-22T09:44:48.662Z,34.7
2017-05-22T09:45:51.572Z,34.7
2017-05-22T09:46:50.392Z,34.7
2017-05-22T09:47:48.019Z,34.8
2017-05-22T09:48:51.852Z,34.8
2017-05-22T09:49:52.054Z,34.8
2017-05-22T09:50:51.102Z,34.8
2017-05-22T09:51:48.193Z,34.8
2017-05-22T09:52:47.757Z,34.7
2017-05-22T09:53:50.579Z,34.7
2017-05-22T09:54:52.321Z,34.7
2017-05-22T09:55:47.837Z,34.6
2017-05-22T09:56:52.038Z,34.6
2017-05-22T09:57:52.478Z,34.5
2017-05-22T09:58:51.256Z,34.4
2017-05-22T09:59:48.054Z,34.4
2017-05-22T10:00:51.134Z,34.3
2017-05-22T10:01:48.265Z,34.3
2017-05-22T10:02:49.040Z,34.2
2017-05-22T10:03:49.772Z,34.3
2017-05-22T10:04:49.177Z,34.3
2017-05-22T10:05:53.709Z,34.3
2017-05-22T10:06:53.958Z,34.3
2017-05-22T10:07:49.221Z,34.3
2017-05-22T10:08:50.611Z,34.3
2017-05-22T10:09:52.054Z,34.3
2017-05-22T10:10:48.726Z,34.4
2017-05-22T10:11:51.468Z,34.4
2017-05-22T10:12:48.675Z,34.4
2017-05-22T10:13:51.730Z,34.4
2017-05-22T10:14:52.106Z,34.3
2017-05-22T10:15:48.755Z,34.4
2017-05-22T10:16:50.887Z,34.4
2017-05-22T10:17:51.070Z,34.5
2017-05-22T10:18:53.580Z,34.4
2017-05-22T10:19:53.279Z,34.5
2017-05-22T10:20:51.631Z,34.5
2017-05-22T10:21:55.947Z,34.5
2017-05-22T10:22:53.662Z,34.5
2017-05-22T10:23:57.999Z,34.5
2017-05-22T10:25:00.799Z,34.5
2017-05-22T10:25:50.921Z,34.6
2017-05-22T10:26:55.079Z,34.6
2017-05-22T10:27:54.998Z,34.5
2017-05-22T10:28:56.103Z,34.5
2017-05-22T10:29:51.421Z,34.5
2017-05-22T10:30:53.612Z,34.5
2017-05-22T10:31:53.878Z,34.5
2017-05-22T10:32:52.481Z,34.5
2017-05-22T10:33:50.383Z,34.5
2017-05-22T10:34:52.814Z,34.6
2017-05-22T10:35:49.655Z,34.6
2017-05-22T10:36:52.369Z,34.7
2017-05-22T10:37:55.368Z,34.8
2017-05-22T10:38:52.878Z,34.8
2017-05-22T10:39:50.970Z,34.9
2017-05-22T10:40:50.163Z,34.9
2017-05-22T10:41:52.768Z,35
2017-05-22T10:42:55.390Z,35.1
2017-05-22T10:43:53.268Z,35.2
2017-05-22T10:44:54.180Z,35.2
2017-05-22T10:45:50.772Z,35.2
2017-05-22T10:46:55.449Z,35.1
2017-05-22T10:47:55.017Z,35.1
2017-05-22T10:49:00.563Z,35
2017-05-22T10:49:51.196Z,34.9
2017-05-22T10:50:54.557Z,34.9
2017-05-22T10:51:51.289Z,34.8
2017-05-22T10:52:55.814Z,34.9
2017-05-22T10:53:56.198Z,35.4
2017-05-22T10:54:53.462Z,36.1
2017-05-22T10:55:53.601Z,36.7
2017-05-22T10:56:52.630Z,37.2
2017-05-22T10:57:54.289Z,37.8
2017-05-22T10:58:51.042Z,38.2
2017-05-22T10:59:55.594Z,38.6
2017-05-22T11:00:55.057Z,39
2017-05-22T11:01:50.990Z,39.4
2017-05-22T11:02:55.782Z,39.7
2017-05-22T11:03:51.421Z,40
2017-05-22T11:04:52.617Z,40.2
2017-05-22T11:05:54.041Z,40.4
2017-05-22T11:06:54.061Z,40.5
2017-05-22T11:07:56.072Z,40.6
2017-05-22T11:08:57.124Z,40.6
2017-05-22T11:10:00.101Z,40.6
2017-05-22T11:10:54.622Z,40.7
2017-05-22T11:11:55.624Z,40.7
2017-05-22T11:12:52.080Z,40.7
2017-05-22T11:13:52.052Z,40.6
2017-05-22T11:14:55.096Z,40.5
2017-05-22T11:15:57.345Z,40.5
2017-05-22T11:16:53.825Z,40.4
2017-05-22T11:17:58.089Z,40.3
2017-05-22T11:18:56.486Z,40.5
2017-05-22T11:19:53.147Z,40.6
2017-05-22T11:20:53.608Z,40.7
2017-05-22T11:21:56.284Z,40.8
2017-05-22T11:22:52.652Z,40.9
2017-05-22T11:23:56.727Z,41.1
2017-05-22T11:24:54.444Z,41.2
2017-05-22T11:25:52.112Z,41.3
2017-05-22T11:26:53.240Z,41.4
2017-05-22T11:27:53.539Z,41.3
2017-05-22T11:28:56.657Z,41.4
2017-05-22T11:29:53.496Z,41.4
2017-05-22T11:30:56.355Z,41.3
2017-05-22T11:31:52.423Z,41.1
2017-05-22T11:32:52.925Z,40.7
2017-05-22T11:33:55.371Z,40.4
2017-05-22T11:34:55.695Z,40.2
2017-05-22T11:35:56.157Z,40
2017-05-22T11:36:55.472Z,39.8
2017-05-22T11:37:53.220Z,39.7
2017-05-22T11:38:52.656Z,39.6
2017-05-22T11:39:56.191Z,39.5
2017-05-22T11:40:52.937Z,39.3
2017-05-22T11:41:55.763Z,39.1
2017-05-22T11:42:52.864Z,38.9
2017-05-22T11:43:57.868Z,38.7
2017-05-22T11:44:55.812Z,38.5
2017-05-22T11:45:56.577Z,38.4
2017-05-22T11:46:54.001Z,38.3
2017-05-22T11:47:53.682Z,38.2
2017-05-22T11:48:56.676Z,38.1
2017-05-22T11:49:56.073Z,37.9
2017-05-22T11:50:53.721Z,37.9
2017-05-22T11:51:53.278Z,37.8
2017-05-22T11:52:53.973Z,37.7
2017-05-22T11:53:53.318Z,37.5
2017-05-22T11:54:53.931Z,37.4
2017-05-22T11:55:54.654Z,37.2
2017-05-22T11:56:53.473Z,37.2
2017-05-22T11:57:54.192Z,37.1
2017-05-22T11:58:59.744Z,37.1
2017-05-22T11:59:56.441Z,37
2017-05-22T12:00:55.832Z,37
2017-05-22T12:01:57.043Z,37
2017-05-22T12:02:53.508Z,37
2017-05-22T12:03:54.220Z,36.9
2017-05-22T12:04:57.295Z,36.9
2017-05-22T12:05:54.270Z,36.9
2017-05-22T12:06:59.417Z,36.9
2017-05-22T12:07:54.733Z,36.9
2017-05-22T12:08:54.089Z,36.9
2017-05-22T12:09:57.628Z,36.8
2017-05-22T12:10:58.958Z,36.7
2017-05-22T12:11:56.039Z,36.5
2017-05-22T12:13:01.320Z,36.5
2017-05-22T12:13:57.904Z,36.4
2017-05-22T12:14:57.187Z,36.4
2017-05-22T12:15:54.518Z,36.3
2017-05-22T12:16:58.607Z,36.3
2017-05-22T12:17:58.133Z,36.3
2017-05-22T12:19:01.925Z,36.2
2017-05-22T12:19:55.274Z,36.2
2017-05-22T12:20:57.330Z,36.2
2017-05-22T12:21:58.121Z,36.2
2017-05-22T12:22:56.420Z,36.2
2017-05-22T12:24:00.216Z,36.2
2017-05-22T12:24:58.906Z,36.2
2017-05-22T12:25:58.562Z,36.1
2017-05-22T12:26:56.214Z,36.2
2017-05-22T12:27:57.560Z,36.2
2017-05-22T12:28:58.941Z,36.2
2017-05-22T12:29:59.992Z,36.1
2017-05-22T12:30:59.418Z,36.1
2017-05-22T12:31:58.106Z,36.1
2017-05-22T12:33:00.511Z,36.1
2017-05-22T12:33:56.368Z,36
2017-05-22T12:34:56.218Z,36.1
2017-05-22T12:36:01.694Z,36.1
2017-05-22T12:36:58.844Z,36.1
2017-05-22T12:37:59.471Z,36.1
2017-05-22T12:38:59.729Z,36.1
2017-05-22T12:39:58.224Z,36.1
2017-05-22T12:40:59.222Z,36.1
2017-05-22T12:42:00.079Z,36
2017-05-22T12:42:58.510Z,36
2017-05-22T12:43:58.497Z,36.1
2017-05-22T12:45:01.625Z,36.1
2017-05-22T12:46:02.003Z,36.1
2017-05-22T12:46:59.806Z,36.1
2017-05-22T12:47:56.453Z,36.1
2017-05-22T12:49:00.141Z,36.1
2017-05-22T12:49:56.641Z,36.1
2017-05-22T12:50:57.372Z,36.1
2017-05-22T12:52:00.652Z,36
2017-05-22T12:52:59.297Z,36
2017-05-22T12:53:57.343Z,35.9
2017-05-22T12:54:56.734Z,35.9
2017-05-22T12:56:00.989Z,35.9
2017-05-22T12:57:03.335Z,35.8
2017-05-22T12:57:57.010Z,35.8
2017-05-22T12:58:57.988Z,35.7
2017-05-22T12:59:57.847Z,35.7
2017-05-22T13:00:58.942Z,35.7
2017-05-22T13:02:01.127Z,35.5
2017-05-22T13:03:00.518Z,35.4
2017-05-22T13:03:58.148Z,35.2
2017-05-22T13:05:01.832Z,35.1
2017-05-22T13:05:59.961Z,35
2017-05-22T13:06:56.575Z,35
2017-05-22T13:08:01.168Z,34.9
2017-05-22T13:08:58.385Z,34.9
2017-05-22T13:10:03.289Z,35
2017-05-22T13:10:58.088Z,35
2017-05-22T13:12:00.575Z,35
2017-05-22T13:13:00.343Z,35
2017-05-22T13:14:07.613Z,35.1
2017-05-22T13:15:01.678Z,35.1
2017-05-22T13:16:02.409Z,35.2
2017-05-22T13:16:57.795Z,35.2
2017-05-22T13:18:00.048Z,35.2
2017-05-22T13:18:59.017Z,35.2
2017-05-22T13:20:01.391Z,35.2
2017-05-22T13:20:57.402Z,35.3
2017-05-22T13:21:58.761Z,35.2